createdAt,value
2023-11-26T00:00:38.234Z,10.20
2023-11-26T00:03:05.562Z,9.82
2023-11-26T00:05:32.399Z,7.00
2023-11-26T00:07:58.934Z,4.97
2023-11-26T00:10:25.724Z,5.85
2023-11-26T00:12:53.719Z,5.15
2023-11-26T00:15:22.056Z,6.18
2023-11-26T00:17:49.060Z,5.93
2023-11-26T00:20:15.989Z,6.57
2023-11-26T00:22:42.602Z,4.53
2023-11-26T00:25:09.363Z,4.40
2023-11-26T00:27:35.986Z,6.18
2023-11-26T00:30:02.773Z,7.45
2023-11-26T00:32:31.018Z,9.90
2023-11-26T00:37:25.504Z,6.55
2023-11-26T00:39:52.048Z,6.85
2023-11-26T00:42:18.576Z,5.95
2023-11-26T00:44:45.108Z,5.05
2023-11-26T00:47:11.739Z,6.22
2023-11-26T00:49:38.324Z,5.65
2023-11-26T00:52:05.224Z,7.10
2023-11-26T00:54:31.749Z,7.68
2023-11-26T00:56:58.353Z,9.90
2023-11-26T00:59:24.924Z,8.00
2023-11-26T01:01:51.723Z,5.07
2023-11-26T01:04:18.392Z,8.43
2023-11-26T01:06:45.289Z,8.02
2023-11-26T01:09:13.950Z,6.50
2023-11-26T01:11:40.658Z,11.23
2023-11-26T01:14:09.086Z,5.00
2023-11-26T01:16:35.797Z,8.20
2023-11-26T01:19:02.738Z,7.88
2023-11-26T01:21:29.308Z,5.93
2023-11-26T01:23:55.862Z,6.30
2023-11-26T01:26:22.482Z,6.97
2023-11-26T01:28:49.326Z,5.95
2023-11-26T01:31:15.989Z,6.82
2023-11-26T01:33:42.600Z,6.28
2023-11-26T01:36:11.066Z,6.13
2023-11-26T01:38:38.419Z,6.95
2023-11-26T01:41:05.287Z,6.60
2023-11-26T01:43:32.015Z,5.45
2023-11-26T01:46:08.665Z,5.88
2023-11-26T01:48:36.909Z,5.63
2023-11-26T01:51:06.438Z,5.22
2023-11-26T01:53:34.432Z,7.20
2023-11-26T01:56:02.166Z,6.07
2023-11-26T01:58:30.724Z,5.60
2023-11-26T02:00:59.008Z,6.68
2023-11-26T02:03:25.664Z,7.38
2023-11-26T02:05:53.237Z,9.20
2023-11-26T02:08:21.823Z,5.70
2023-11-26T02:10:49.852Z,5.25
2023-11-26T02:13:16.445Z,6.03
2023-11-26T02:15:43.127Z,5.18
2023-11-26T02:18:09.810Z,10.30
2023-11-26T02:20:37.184Z,6.05
2023-11-26T02:23:04.625Z,7.45
2023-11-26T02:25:32.677Z,4.03
2023-11-26T02:28:00.483Z,6.65
2023-11-26T02:30:27.506Z,4.22
2023-11-26T02:32:54.143Z,7.60
2023-11-26T02:35:20.952Z,6.25
2023-11-26T02:37:48.695Z,8.48
2023-11-26T02:40:16.739Z,9.15
2023-11-26T02:42:45.055Z,6.07
2023-11-26T02:45:12.369Z,10.98
2023-11-26T02:47:39.493Z,7.50
2023-11-26T02:50:09.153Z,7.95
2023-11-26T02:52:36.699Z,10.65
2023-11-26T02:55:04.317Z,5.45
2023-11-26T02:57:31.074Z,8.05
2023-11-26T02:59:59.261Z,7.47
2023-11-26T03:02:26.157Z,5.82
2023-11-26T03:04:55.269Z,5.65
2023-11-26T03:07:23.180Z,6.63
2023-11-26T03:10:09.003Z,6.88
2023-11-26T03:12:53.766Z,7.20
2023-11-26T03:15:20.359Z,6.63
2023-11-26T03:17:46.901Z,6.05
2023-11-26T03:20:17.844Z,8.80
2023-11-26T03:22:44.681Z,6.43
2023-11-26T03:25:11.278Z,5.82
2023-11-26T03:27:39.533Z,4.00
2023-11-26T03:30:09.381Z,5.53
2023-11-26T03:32:37.310Z,6.47
2023-11-26T03:35:04.486Z,9.68
2023-11-26T03:37:31.066Z,5.18
2023-11-26T03:39:57.620Z,5.15
2023-11-26T03:42:29.108Z,5.47
2023-11-26T03:44:56.949Z,4.95
2023-11-26T03:47:24.695Z,9.00
2023-11-26T03:49:52.597Z,5.53
2023-11-26T03:52:20.119Z,7.40
2023-11-26T03:54:46.825Z,8.48
2023-11-26T03:57:13.507Z,8.43
2023-11-26T03:59:44.154Z,9.10
2023-11-26T04:02:11.263Z,8.35
2023-11-26T04:04:38.650Z,8.15
2023-11-26T04:07:05.604Z,6.75
2023-11-26T04:09:32.484Z,5.93
2023-11-26T04:11:59.399Z,5.97
2023-11-26T04:14:36.142Z,8.07
2023-11-26T04:17:03.357Z,6.13
2023-11-26T04:19:30.111Z,5.75
2023-11-26T04:21:56.755Z,9.48
2023-11-26T04:24:23.438Z,7.00
2023-11-26T04:26:50.054Z,6.07
2023-11-26T04:29:17.242Z,8.50
2023-11-26T04:31:43.933Z,7.90
2023-11-26T04:34:11.311Z,6.05
2023-11-26T04:36:38.045Z,5.93
2023-11-26T04:39:06.506Z,7.90
2023-11-26T04:41:33.400Z,8.07
2023-11-26T04:44:00.073Z,5.85
2023-11-26T04:46:26.815Z,9.20
2023-11-26T04:48:53.971Z,7.03
2023-11-26T04:51:22.276Z,7.90
2023-11-26T04:53:48.829Z,7.10
2023-11-26T04:56:15.428Z,6.82
2023-11-26T04:58:41.980Z,7.40
2023-11-26T05:01:09.535Z,7.60
2023-11-26T05:03:36.228Z,7.50
2023-11-26T05:06:02.954Z,5.00
2023-11-26T05:08:29.615Z,7.70
2023-11-26T05:10:57.635Z,7.88
2023-11-26T05:13:26.171Z,8.48
2023-11-26T05:15:53.793Z,4.40
2023-11-26T05:18:21.499Z,10.65
2023-11-26T05:20:50.956Z,8.18
2023-11-26T05:25:44.113Z,9.57
2023-11-26T05:28:10.800Z,7.88
2023-11-26T05:30:37.421Z,7.72
2023-11-26T05:33:04.223Z,9.20
2023-11-26T05:35:30.869Z,9.05
2023-11-26T05:37:57.462Z,12.40
2023-11-26T05:40:24.080Z,6.70
2023-11-26T05:42:50.891Z,6.72
2023-11-26T05:45:17.854Z,5.82
2023-11-26T05:47:44.521Z,11.32
2023-11-26T05:50:11.901Z,6.72
2023-11-26T05:52:38.619Z,7.07
2023-11-26T05:55:07.991Z,8.50
2023-11-26T06:00:01.231Z,7.05
2023-11-26T06:02:27.933Z,9.00
2023-11-26T06:04:54.457Z,8.40
2023-11-26T06:07:20.992Z,8.88
2023-11-26T06:09:47.541Z,5.85
2023-11-26T06:12:14.121Z,9.85
2023-11-26T06:14:40.764Z,8.15
2023-11-26T06:17:07.430Z,6.53
2023-11-26T06:19:34.026Z,8.93
2023-11-26T06:22:00.584Z,9.93
2023-11-26T06:24:27.163Z,9.65
2023-11-26T06:26:54.456Z,8.07
2023-11-26T06:29:21.043Z,7.82
2023-11-26T06:31:47.593Z,9.57
2023-11-26T06:34:14.152Z,8.95
2023-11-26T06:36:40.688Z,7.75
2023-11-26T06:39:10.218Z,8.75
2023-11-26T06:41:40.063Z,7.63
2023-11-26T06:44:07.991Z,10.40
2023-11-26T06:46:34.578Z,8.65
2023-11-26T06:49:01.122Z,14.52
2023-11-26T06:51:27.724Z,9.13
2023-11-26T06:53:55.378Z,9.60
2023-11-26T06:56:22.046Z,7.38
2023-11-26T06:58:48.553Z,10.15
2023-11-26T07:01:15.612Z,9.88
2023-11-26T07:03:44.318Z,12.38
2023-11-26T07:06:12.532Z,14.30
2023-11-26T07:08:42.291Z,8.48
2023-11-26T07:11:19.858Z,12.70
2023-11-26T07:13:54.837Z,8.73
2023-11-26T07:16:22.665Z,10.75
2023-11-26T07:18:51.388Z,8.30
2023-11-26T07:21:18.412Z,10.13
2023-11-26T07:23:44.984Z,9.90
2023-11-26T07:26:17.316Z,10.48
2023-11-26T07:28:43.857Z,15.45
2023-11-26T07:31:15.079Z,9.93
2023-11-26T07:33:41.835Z,9.25
2023-11-26T07:36:18.432Z,10.63
2023-11-26T07:38:44.995Z,9.55
2023-11-26T07:41:11.702Z,10.70
2023-11-26T07:43:42.174Z,13.93
2023-11-26T07:46:09.860Z,13.93
2023-11-26T07:48:37.579Z,12.85
2023-11-26T07:51:04.955Z,12.70
2023-11-26T07:53:33.399Z,14.55
2023-11-26T07:56:01.238Z,11.02
2023-11-26T07:58:29.473Z,11.43
2023-11-26T08:00:59.423Z,11.73
2023-11-26T08:03:28.206Z,10.70
2023-11-26T08:05:55.417Z,11.75
2023-11-26T08:08:23.582Z,12.40
2023-11-26T08:10:53.726Z,11.70
2023-11-26T08:13:24.111Z,12.80
2023-11-26T08:15:57.631Z,11.85
2023-11-26T08:18:25.635Z,13.73
2023-11-26T08:20:55.683Z,14.48
2023-11-26T08:23:22.428Z,14.43
2023-11-26T08:25:54.610Z,12.73
2023-11-26T08:28:28.886Z,16.48
2023-11-26T08:30:56.514Z,18.92
2023-11-26T08:33:24.022Z,14.73
2023-11-26T08:36:00.723Z,14.18
2023-11-26T08:38:29.203Z,15.98
2023-11-26T08:40:56.049Z,12.38
2023-11-26T08:43:23.626Z,15.10
2023-11-26T08:45:50.792Z,15.32
2023-11-26T08:48:19.104Z,13.43
2023-11-26T08:50:45.878Z,14.18
2023-11-26T08:53:13.978Z,15.45
2023-11-26T08:55:40.997Z,13.07
2023-11-26T08:58:08.255Z,13.55
2023-11-26T09:00:35.094Z,13.88
2023-11-26T09:03:01.682Z,16.73
2023-11-26T09:05:28.677Z,18.48
2023-11-26T09:07:55.313Z,18.50
2023-11-26T09:10:21.962Z,13.48
2023-11-26T09:12:48.524Z,15.35
2023-11-26T09:15:15.102Z,15.45
2023-11-26T09:17:42.942Z,15.20
2023-11-26T09:20:12.794Z,19.85
2023-11-26T09:22:43.104Z,19.55
2023-11-26T09:25:11.817Z,16.88
2023-11-26T09:27:38.463Z,15.75
2023-11-26T09:30:05.686Z,20.35
2023-11-26T09:32:35.766Z,15.55
2023-11-26T09:35:02.542Z,18.73
2023-11-26T09:37:31.087Z,24.75
2023-11-26T09:39:57.866Z,19.40
2023-11-26T09:42:25.776Z,17.42
2023-11-26T09:44:53.169Z,15.32
2023-11-26T09:47:20.248Z,18.02
2023-11-26T09:49:47.292Z,15.05
2023-11-26T09:52:17.023Z,14.15
2023-11-26T09:54:43.655Z,12.23
2023-11-26T09:57:12.096Z,14.30
2023-11-26T09:59:39.149Z,17.55
2023-11-26T10:02:13.495Z,13.32
2023-11-26T10:04:51.384Z,11.77
2023-11-26T10:07:20.168Z,14.65
2023-11-26T10:10:14.229Z,13.07
2023-11-26T10:12:58.806Z,10.30
2023-11-26T10:15:33.252Z,10.65
2023-11-26T10:18:09.481Z,14.55
2023-11-26T10:20:39.929Z,11.57
2023-11-26T10:23:11.760Z,11.57
2023-11-26T10:25:46.047Z,13.15
2023-11-26T10:28:16.838Z,13.82
2023-11-26T10:30:44.241Z,12.70
2023-11-26T10:33:13.573Z,13.40
2023-11-26T10:35:51.155Z,13.32
2023-11-26T10:38:19.696Z,12.05
2023-11-26T10:40:46.559Z,11.63
2023-11-26T10:43:13.687Z,14.35
2023-11-26T10:45:43.760Z,14.02
2023-11-26T10:48:19.989Z,12.77
2023-11-26T10:51:17.499Z,15.75
2023-11-26T10:54:11.224Z,12.18
2023-11-26T10:56:39.818Z,15.05
2023-11-26T10:59:10.974Z,11.50
2023-11-26T11:01:38.850Z,11.18
2023-11-26T11:04:16.166Z,14.45
2023-11-26T11:06:46.164Z,11.95
2023-11-26T11:09:20.117Z,14.35
2023-11-26T11:12:13.826Z,12.00
2023-11-26T11:14:41.002Z,14.63
2023-11-26T11:17:08.393Z,12.38
2023-11-26T11:19:52.067Z,9.73
2023-11-26T11:22:19.620Z,13.88
2023-11-26T11:24:46.661Z,12.90
2023-11-26T11:27:13.381Z,11.48
2023-11-26T11:29:40.030Z,15.48
2023-11-26T11:32:06.778Z,15.18
2023-11-26T11:34:33.566Z,15.73
2023-11-26T11:37:01.008Z,14.60
2023-11-26T11:39:52.492Z,15.98
2023-11-26T11:42:28.497Z,16.98
2023-11-26T11:44:56.074Z,16.35
2023-11-26T11:47:45.346Z,13.20
2023-11-26T11:50:12.588Z,20.50
2023-11-26T11:52:39.942Z,14.02
2023-11-26T11:55:18.821Z,13.02
2023-11-26T11:57:48.188Z,15.50
2023-11-26T12:00:22.337Z,13.07
2023-11-26T12:02:53.678Z,14.90
2023-11-26T12:05:25.476Z,13.82
2023-11-26T12:07:53.757Z,16.10
2023-11-26T12:10:25.512Z,12.48
2023-11-26T12:13:08.603Z,12.88
2023-11-26T12:15:36.921Z,14.85
2023-11-26T12:18:03.704Z,11.50
2023-11-26T12:20:30.413Z,13.65
2023-11-26T12:22:57.371Z,14.05
2023-11-26T12:25:24.304Z,13.57
2023-11-26T12:28:07.958Z,13.02
2023-11-26T12:30:38.163Z,11.52
2023-11-26T12:33:05.579Z,15.90
2023-11-26T12:35:35.557Z,11.98
2023-11-26T12:38:06.648Z,10.55
2023-11-26T12:40:34.741Z,10.40
2023-11-26T12:43:01.501Z,13.00
2023-11-26T12:45:28.191Z,11.57
2023-11-26T12:47:58.543Z,12.93
2023-11-26T12:50:26.550Z,13.95
2023-11-26T12:52:53.855Z,10.85
2023-11-26T12:55:20.710Z,12.23
2023-11-26T12:57:47.714Z,10.13
2023-11-26T13:00:16.126Z,11.93
2023-11-26T13:02:45.068Z,15.50
2023-11-26T13:05:31.645Z,10.68
2023-11-26T13:08:00.003Z,9.13
2023-11-26T13:10:55.902Z,9.35
2023-11-26T13:13:32.624Z,12.52
2023-11-26T13:16:01.077Z,12.25
2023-11-26T13:18:29.123Z,9.45
2023-11-26T13:21:05.242Z,8.35
2023-11-26T13:23:31.872Z,9.73
2023-11-26T13:26:00.634Z,11.15
2023-11-26T13:28:31.980Z,12.07
2023-11-26T13:31:01.583Z,12.30
2023-11-26T13:33:28.692Z,9.18
2023-11-26T13:36:01.069Z,9.45
2023-11-26T13:38:27.846Z,8.82
2023-11-26T13:40:54.700Z,11.82
2023-11-26T13:43:22.626Z,9.63
2023-11-26T13:45:49.486Z,9.68
2023-11-26T13:48:17.612Z,10.95
2023-11-26T13:50:45.849Z,10.40
2023-11-26T13:53:12.627Z,12.63
2023-11-26T13:55:40.559Z,9.45
2023-11-26T13:58:07.393Z,10.18
2023-11-26T14:00:34.509Z,8.30
2023-11-26T14:03:02.110Z,10.85
2023-11-26T14:05:29.213Z,10.07
2023-11-26T14:07:55.828Z,9.98
2023-11-26T14:10:28.067Z,8.65
2023-11-26T14:13:00.483Z,9.60
2023-11-26T14:15:27.831Z,9.40
2023-11-26T14:17:56.896Z,8.25
2023-11-26T14:20:23.664Z,9.57
2023-11-26T14:22:54.391Z,7.57
2023-11-26T14:25:21.886Z,8.50
2023-11-26T14:27:50.066Z,8.55
2023-11-26T14:30:18.929Z,10.82
2023-11-26T14:32:48.524Z,14.07
2023-11-26T14:35:16.135Z,9.02
2023-11-26T14:37:44.014Z,10.13
2023-11-26T14:40:11.955Z,12.13
2023-11-26T14:42:38.768Z,10.10
2023-11-26T14:45:06.193Z,12.15
2023-11-26T14:47:32.943Z,10.93
2023-11-26T14:49:59.907Z,12.68
2023-11-26T14:52:26.519Z,10.50
2023-11-26T14:54:53.214Z,9.90
2023-11-26T14:57:19.748Z,10.35
2023-11-26T14:59:47.767Z,9.18
2023-11-26T15:02:19.175Z,10.35
2023-11-26T15:04:46.224Z,9.68
2023-11-26T15:07:12.798Z,9.52
2023-11-26T15:09:39.442Z,12.00
2023-11-26T15:12:06.545Z,10.48
2023-11-26T15:14:33.294Z,9.55
2023-11-26T15:17:00.073Z,10.05
2023-11-26T15:19:27.105Z,10.70
2023-11-26T15:21:53.779Z,10.98
2023-11-26T15:24:20.403Z,10.23
2023-11-26T15:26:48.127Z,10.52
2023-11-26T15:29:14.906Z,9.55
2023-11-26T15:31:41.558Z,11.48
2023-11-26T15:34:08.359Z,11.48
2023-11-26T15:36:35.307Z,10.77
2023-11-26T15:39:02.241Z,11.77
2023-11-26T15:41:28.946Z,11.60
2023-11-26T15:43:55.556Z,12.70
2023-11-26T15:46:29.616Z,12.50
2023-11-26T15:48:57.321Z,11.25
2023-11-26T15:51:24.316Z,9.27
2023-11-26T15:54:02.284Z,11.48
2023-11-26T15:56:31.880Z,12.15
2023-11-26T15:58:58.893Z,8.63
2023-11-26T16:01:27.784Z,12.00
2023-11-26T16:03:55.373Z,11.25
2023-11-26T16:06:22.254Z,10.38
2023-11-26T16:08:48.834Z,9.50
2023-11-26T16:11:16.061Z,9.15
2023-11-26T16:13:42.586Z,9.65
2023-11-26T16:16:10.008Z,10.80
2023-11-26T16:18:37.768Z,11.32
2023-11-26T16:21:04.636Z,9.38
2023-11-26T16:23:31.192Z,8.43
2023-11-26T16:25:58.162Z,8.73
2023-11-26T16:28:26.176Z,10.23
2023-11-26T16:30:52.802Z,9.70
2023-11-26T16:33:56.642Z,11.07
2023-11-26T16:36:25.047Z,11.52
2023-11-26T16:38:55.176Z,9.90
2023-11-26T16:41:22.118Z,11.48
2023-11-26T16:43:49.929Z,8.43
2023-11-26T16:46:18.740Z,9.95
2023-11-26T16:48:46.442Z,9.27
2023-11-26T16:51:13.919Z,9.50
2023-11-26T16:53:40.695Z,9.80
2023-11-26T16:56:11.553Z,10.25
2023-11-26T16:58:39.703Z,9.93
2023-11-26T17:01:07.526Z,10.10
2023-11-26T17:03:34.945Z,13.32
2023-11-26T17:06:04.098Z,9.88
2023-11-26T17:08:31.000Z,10.05
2023-11-26T17:10:58.175Z,8.70
2023-11-26T17:13:27.123Z,10.07
2023-11-26T17:15:54.248Z,9.43
2023-11-26T17:18:21.194Z,11.63
2023-11-26T17:20:48.087Z,11.18
2023-11-26T17:23:16.206Z,9.93
2023-11-26T17:25:46.636Z,13.20
2023-11-26T17:28:15.878Z,13.10
2023-11-26T17:33:09.855Z,10.48
2023-11-26T17:35:37.030Z,9.70
2023-11-26T17:38:03.641Z,11.57
2023-11-26T17:40:30.240Z,10.23
2023-11-26T17:42:56.892Z,17.02
2023-11-26T17:45:26.174Z,12.82
2023-11-26T17:50:19.307Z,14.90
2023-11-26T17:52:53.072Z,12.77
2023-11-26T17:55:29.708Z,13.70
2023-11-26T17:57:56.892Z,15.02
2023-11-26T18:00:24.331Z,10.68
2023-11-26T18:02:50.930Z,14.30
2023-11-26T18:05:17.844Z,12.82
2023-11-26T18:07:44.458Z,17.10
2023-11-26T18:10:11.491Z,14.75
2023-11-26T18:12:38.263Z,14.88
2023-11-26T18:15:05.387Z,14.43
2023-11-26T18:17:32.994Z,15.43
2023-11-26T18:19:59.538Z,19.25
2023-11-26T18:22:26.184Z,16.92
2023-11-26T18:24:52.752Z,15.32
2023-11-26T18:27:19.310Z,11.30
2023-11-26T18:29:48.336Z,25.15
2023-11-26T18:32:14.949Z,15.25
2023-11-26T18:34:41.698Z,11.88
2023-11-26T18:37:08.336Z,17.23
2023-11-26T18:39:41.465Z,13.00
2023-11-26T18:42:08.861Z,14.00
2023-11-26T18:44:35.774Z,12.00
2023-11-26T18:47:02.534Z,11.88
2023-11-26T18:49:29.180Z,18.33
2023-11-26T18:51:55.804Z,14.85
2023-11-26T18:54:22.559Z,16.35
2023-11-26T18:56:49.273Z,15.75
2023-11-26T18:59:19.111Z,12.98
2023-11-26T19:01:45.778Z,14.40
2023-11-26T19:04:12.784Z,11.23
2023-11-26T19:06:39.513Z,12.45
2023-11-26T19:09:06.210Z,11.45
2023-11-26T19:11:34.079Z,14.38
2023-11-26T19:14:01.227Z,11.80
2023-11-26T19:16:28.783Z,12.52
2023-11-26T19:18:57.206Z,15.45
2023-11-26T19:21:24.766Z,13.85
2023-11-26T19:23:52.109Z,13.23
2023-11-26T19:26:19.797Z,15.90
2023-11-26T19:28:48.281Z,12.57
2023-11-26T19:31:25.550Z,12.32
2023-11-26T19:33:52.427Z,12.07
2023-11-26T19:36:23.253Z,12.80
2023-11-26T19:38:51.886Z,12.40
2023-11-26T19:41:22.746Z,13.38
2023-11-26T19:43:49.900Z,14.80
2023-11-26T19:46:17.293Z,13.90
2023-11-26T19:48:50.669Z,9.80
2023-11-26T19:51:19.720Z,12.82
2023-11-26T19:53:47.017Z,14.75
2023-11-26T19:56:16.927Z,10.35
2023-11-26T19:58:47.720Z,10.90
2023-11-26T20:01:15.358Z,10.85
2023-11-26T20:03:42.726Z,10.20
2023-11-26T20:06:10.333Z,12.27
2023-11-26T20:08:36.905Z,9.55
2023-11-26T20:11:04.813Z,11.13
2023-11-26T20:13:33.070Z,12.00
2023-11-26T20:15:59.976Z,10.98
2023-11-26T20:18:26.697Z,12.15
2023-11-26T20:20:53.415Z,8.75
2023-11-26T20:23:22.512Z,11.75
2023-11-26T20:28:23.642Z,9.93
2023-11-26T20:30:52.334Z,11.32
2023-11-26T20:33:19.379Z,9.48
2023-11-26T20:35:46.906Z,12.23
2023-11-26T20:38:13.586Z,14.70
2023-11-26T20:40:40.231Z,13.18
2023-11-26T20:43:08.092Z,13.63
2023-11-26T20:45:34.836Z,13.43
2023-11-26T20:48:01.609Z,12.70
2023-11-26T20:50:28.390Z,12.32
2023-11-26T20:52:54.972Z,17.42
2023-11-26T20:55:22.213Z,10.43
2023-11-26T20:57:49.034Z,10.68
2023-11-26T21:00:16.153Z,10.85
2023-11-26T21:02:43.297Z,12.50
2023-11-26T21:05:10.430Z,12.73
2023-11-26T21:07:37.958Z,7.72
2023-11-26T21:10:07.077Z,13.13
2023-11-26T21:12:34.356Z,9.23
2023-11-26T21:15:01.171Z,10.77
2023-11-26T21:17:27.953Z,8.43
2023-11-26T21:19:54.729Z,8.43
2023-11-26T21:22:24.243Z,10.52
2023-11-26T21:24:52.197Z,10.73
2023-11-26T21:27:19.341Z,8.05
2023-11-26T21:29:46.016Z,6.75
2023-11-26T21:32:14.961Z,7.82
2023-11-26T21:34:45.165Z,11.07
2023-11-26T21:37:13.944Z,9.63
2023-11-26T21:39:42.153Z,7.18
2023-11-26T21:42:09.442Z,8.52
2023-11-26T21:44:36.130Z,10.63
2023-11-26T21:47:02.701Z,8.25
2023-11-26T21:49:29.673Z,9.55
2023-11-26T21:51:56.249Z,8.73
2023-11-26T21:54:22.820Z,10.93
2023-11-26T21:56:49.444Z,8.45
2023-11-26T21:59:16.004Z,9.05
2023-11-26T22:01:43.329Z,8.85
2023-11-26T22:04:10.186Z,8.55
2023-11-26T22:06:36.900Z,7.10
2023-11-26T22:09:04.131Z,10.25
2023-11-26T22:11:31.141Z,10.43
2023-11-26T22:13:57.714Z,10.20
2023-11-26T22:16:24.517Z,8.75
2023-11-26T22:18:51.261Z,8.20
2023-11-26T22:21:22.108Z,8.27
2023-11-26T22:23:48.890Z,9.18
2023-11-26T22:26:15.518Z,11.65
2023-11-26T22:28:42.988Z,13.10
2023-11-26T22:31:14.737Z,7.15
2023-11-26T22:33:41.342Z,5.35
2023-11-26T22:36:09.959Z,8.05
2023-11-26T22:38:36.521Z,9.93
2023-11-26T22:41:03.054Z,9.80
2023-11-26T22:43:29.618Z,9.07
2023-11-26T22:45:56.217Z,5.93
2023-11-26T22:48:23.662Z,9.50
2023-11-26T22:50:52.884Z,8.50
2023-11-26T22:53:20.829Z,8.45
2023-11-26T22:55:47.514Z,8.32
2023-11-26T22:58:14.144Z,8.63
2023-11-26T23:00:41.905Z,7.15
2023-11-26T23:03:09.094Z,6.50
2023-11-26T23:05:35.795Z,6.32
2023-11-26T23:08:02.565Z,9.85
2023-11-26T23:10:29.191Z,9.90
2023-11-26T23:12:56.220Z,8.43
2023-11-26T23:15:22.982Z,6.60
2023-11-26T23:17:49.766Z,7.65
2023-11-26T23:20:16.694Z,8.30
2023-11-26T23:22:43.305Z,6.18
2023-11-26T23:25:10.702Z,7.95
2023-11-26T23:27:38.147Z,8.63
2023-11-26T23:30:07.319Z,7.15
2023-11-26T23:32:34.748Z,8.68
2023-11-26T23:35:01.495Z,7.25
2023-11-26T23:37:28.234Z,4.38
2023-11-26T23:39:54.978Z,4.45
2023-11-26T23:42:21.622Z,7.70
2023-11-26T23:44:48.369Z,7.05
2023-11-26T23:47:15.641Z,6.53
2023-11-26T23:49:42.345Z,9.63
2023-11-26T23:52:09.730Z,6.60
2023-11-26T23:54:36.519Z,5.72
2023-11-26T23:57:03.410Z,7.13
2023-11-26T23:59:30.030Z,6.47
